Time;durP1;ratioP1;P1;durP2;ratioP2;P2;SDS_P1;SDS_P2;PMS_P1;PMS_P2;Temp;Humidity;BMP_temperature;BMP_pressure;BME280_temperature;BME280_humidity;BME280_pressure;Samples;Min_cycle;Max_cycle;Signal;HPM_P1;HPM_P2
2022/02/04 00:20:16;;;;;;;11.02;7.78;;;4.90;99.90;;;;;;459870;258;27531;-68
2022/02/04 00:24:27;;;;;;;10.48;8.00;;;4.90;99.90;;;;;;459885;258;27490;-69
2022/02/04 00:26:34;;;;;;;10.00;7.10;;;5.00;99.90;;;;;;460347;258;27475;-69
2022/02/04 00:30:57;;;;;;;13.93;8.30;;;5.00;99.90;;;;;;459868;258;27514;-68
2022/02/04 00:32:49;;;;;;;12.27;7.57;;;4.90;99.90;;;;;;459924;258;27502;-68
2022/02/04 00:34:55;;;;;;;11.32;7.57;;;5.00;99.90;;;;;;459869;258;27467;-68
2022/02/04 00:39:16;;;;;;;10.68;7.87;;;5.00;99.90;;;;;;459890;258;28052;-68
2022/02/04 00:41:13;;;;;;;11.40;7.47;;;5.00;99.90;;;;;;460206;255;27475;-68
2022/02/04 00:43:14;;;;;;;9.95;7.45;;;5.00;99.90;;;;;;459852;258;27499;-68
2022/02/04 00:45:21;;;;;;;8.73;6.90;;;5.00;99.90;;;;;;459876;258;27459;-68
2022/02/04 00:47:22;;;;;;;11.98;8.45;;;5.00;99.90;;;;;;459729;258;27591;-68
2022/02/04 00:49:52;;;;;;;10.82;7.32;;;4.90;99.90;;;;;;459873;258;27471;-68
2022/02/04 00:51:37;;;;;;;10.43;7.25;;;5.00;99.90;;;;;;458786;258;27483;-68
2022/02/04 00:53:50;;;;;;;11.52;7.00;;;5.00;99.90;;;;;;459729;258;27510;-68
2022/02/04 00:56:01;;;;;;;9.25;7.18;;;5.00;99.90;;;;;;459897;258;27495;-68
2022/02/04 01:06:22;;;;;;;9.80;7.00;;;5.00;99.90;;;;;;459892;258;27540;-68
2022/02/04 01:25:56;;;;;;;10.68;7.50;;;5.00;99.90;;;;;;459891;258;27558;-68
2022/02/04 01:27:44;;;;;;;8.90;6.90;;;4.90;99.90;;;;;;460363;257;27574;-68
2022/02/04 01:29:53;;;;;;;10.20;7.20;;;5.00;99.90;;;;;;459872;258;27447;-69
2022/02/04 01:31:41;;;;;;;10.00;7.68;;;4.90;99.90;;;;;;459924;258;27502;-69
2022/02/04 01:33:43;;;;;;;9.65;6.50;;;4.90;99.90;;;;;;459847;258;27498;-69
2022/02/04 01:35:43;;;;;;;9.70;7.18;;;4.90;99.90;;;;;;459868;258;27460;-70
2022/02/04 01:37:44;;;;;;;9.45;7.03;;;5.00;99.90;;;;;;459876;258;27516;-68
2022/02/04 01:39:46;;;;;;;9.07;6.95;;;5.00;99.90;;;;;;459900;258;27597;-68
2022/02/04 01:41:47;;;;;;;9.98;7.28;;;4.90;99.90;;;;;;459865;258;27947;-68
2022/02/04 01:43:48;;;;;;;10.57;6.68;;;4.90;99.90;;;;;;459868;258;28161;-68
2022/02/04 01:45:49;;;;;;;10.75;6.45;;;4.90;99.90;;;;;;460353;258;27977;-68
2022/02/04 01:47:56;;;;;;;8.50;6.50;;;5.00;99.90;;;;;;459880;258;27491;-68
2022/02/04 01:49:58;;;;;;;10.68;7.07;;;4.90;99.90;;;;;;459879;258;27470;-68
2022/02/04 01:51:59;;;;;;;10.27;7.10;;;4.90;99.90;;;;;;459873;258;27503;-68
2022/02/04 01:54:00;;;;;;;10.43;6.80;;;4.90;99.90;;;;;;459870;258;27935;-68
2022/02/04 01:56:01;;;;;;;10.40;7.62;;;4.90;99.90;;;;;;459880;258;27915;-68
2022/02/04 01:58:03;;;;;;;8.48;6.87;;;4.90;99.90;;;;;;459878;258;27490;-68
2022/02/04 02:00:04;;;;;;;7.78;6.28;;;5.00;99.90;;;;;;459883;258;27454;-68
2022/02/04 02:02:05;;;;;;;8.43;6.60;;;5.00;99.90;;;;;;459877;258;27590;-68
2022/02/04 02:04:10;;;;;;;10.70;7.40;;;4.90;99.90;;;;;;459854;258;27501;-68
2022/02/04 02:06:10;;;;;;;11.30;8.20;;;4.90;99.90;;;;;;459882;258;27483;-68
2022/02/04 02:08:09;;;;;;;11.30;8.13;;;4.90;99.90;;;;;;459882;258;27839;-69
2022/02/04 02:10:13;;;;;;;10.75;7.68;;;4.90;99.90;;;;;;459855;258;27561;-70
2022/02/04 02:12:12;;;;;;;10.43;7.22;;;4.90;99.90;;;;;;459853;258;28040;-70
2022/02/04 02:14:14;;;;;;;10.90;7.72;;;4.90;99.90;;;;;;459846;258;28041;-70
2022/02/04 02:16:44;;;;;;;10.82;8.18;;;4.90;99.90;;;;;;459866;258;27465;-70
2022/02/04 02:43:30;;;;;;;12.07;8.18;;;4.80;99.90;;;;;;459866;258;27531;-70
2022/02/04 02:49:51;;;;;;;11.85;7.65;;;4.80;99.90;;;;;;459863;258;27553;-70
2022/02/04 02:52:02;;;;;;;10.35;7.30;;;4.90;99.90;;;;;;459833;258;27499;-71
2022/02/04 02:53:50;;;;;;;10.07;8.07;;;4.90;99.90;;;;;;458354;258;27466;-70
2022/02/04 03:02:24;;;;;;;10.65;7.20;;;4.80;99.90;;;;;;459889;258;27951;-70
2022/02/04 03:04:26;;;;;;;10.13;7.47;;;4.90;99.90;;;;;;459861;258;28042;-70
2022/02/04 03:06:27;;;;;;;9.23;7.65;;;4.90;99.90;;;;;;459883;258;27534;-70
2022/02/04 03:08:28;;;;;;;9.50;7.10;;;4.90;99.90;;;;;;459886;258;27578;-70
2022/02/04 03:10:29;;;;;;;11.02;7.85;;;4.90;99.90;;;;;;459873;258;27463;-70
2022/02/04 03:12:31;;;;;;;10.55;6.50;;;4.90;99.90;;;;;;459885;258;27495;-70
2022/02/04 03:14:32;;;;;;;9.77;6.10;;;4.90;99.90;;;;;;459857;258;27496;-70
2022/02/04 03:16:33;;;;;;;9.43;6.62;;;4.90;99.90;;;;;;459909;258;27472;-70
2022/02/04 03:18:38;;;;;;;10.65;6.55;;;4.90;99.90;;;;;;459883;258;27613;-70
2022/02/04 03:20:48;;;;;;;9.38;6.20;;;4.90;99.90;;;;;;459893;258;27510;-70
2022/02/04 03:22:46;;;;;;;8.63;6.47;;;4.80;99.90;;;;;;459902;258;27486;-70
2022/02/04 03:24:55;;;;;;;10.32;7.10;;;4.90;99.90;;;;;;459919;258;27466;-70
2022/02/04 03:26:58;;;;;;;9.80;7.55;;;4.80;99.90;;;;;;459935;258;27579;-70
2022/02/04 03:28:52;;;;;;;9.73;7.43;;;4.80;99.90;;;;;;459802;258;27590;-70
2022/02/04 03:30:55;;;;;;;10.68;7.30;;;4.90;99.90;;;;;;459877;258;27455;-70
2022/02/04 03:33:00;;;;;;;11.57;6.90;;;4.80;99.90;;;;;;459836;258;27522;-70
2022/02/04 03:34:56;;;;;;;10.25;7.80;;;4.90;99.90;;;;;;459876;258;27845;-70
2022/02/04 03:36:57;;;;;;;11.05;7.75;;;4.80;99.90;;;;;;459903;258;27559;-70
2022/02/04 03:38:59;;;;;;;10.38;7.70;;;4.80;99.90;;;;;;459885;258;27987;-70
2022/02/04 03:41:00;;;;;;;9.15;6.80;;;4.80;99.90;;;;;;459882;258;27933;-70
2022/02/04 03:43:01;;;;;;;9.60;6.70;;;4.80;99.90;;;;;;459861;258;27534;-70
2022/02/04 03:45:02;;;;;;;9.05;6.10;;;4.90;99.90;;;;;;459900;258;27487;-70
2022/02/04 03:47:04;;;;;;;10.95;7.25;;;4.90;99.90;;;;;;459872;258;27562;-70
2022/02/04 03:49:05;;;;;;;10.85;8.05;;;4.90;99.90;;;;;;459888;258;27490;-70
2022/02/04 03:51:06;;;;;;;10.90;7.05;;;4.90;99.90;;;;;;459883;258;27594;-70
2022/02/04 03:53:07;;;;;;;7.55;6.62;;;4.90;99.90;;;;;;459877;258;27591;-70
2022/02/04 03:55:09;;;;;;;9.52;7.37;;;4.90;99.90;;;;;;459917;258;27506;-70
2022/02/04 03:57:10;;;;;;;10.05;7.60;;;4.90;99.90;;;;;;459876;258;27973;-70
2022/02/04 03:59:11;;;;;;;9.60;6.85;;;4.90;99.90;;;;;;459882;258;27990;-70
2022/02/04 04:01:12;;;;;;;9.60;7.05;;;4.90;99.90;;;;;;459860;258;27934;-70
2022/02/04 04:03:14;;;;;;;8.65;6.32;;;4.90;99.90;;;;;;459847;258;27482;-70
2022/02/04 04:05:15;;;;;;;9.68;6.68;;;4.90;99.90;;;;;;459888;258;27583;-70
2022/02/04 04:07:16;;;;;;;8.23;6.05;;;4.90;99.90;;;;;;459888;258;27506;-70
2022/02/04 04:09:17;;;;;;;10.45;6.62;;;4.90;99.90;;;;;;459882;258;27494;-70
2022/02/04 04:11:19;;;;;;;8.93;6.07;;;4.90;99.90;;;;;;459877;258;27474;-70
2022/02/04 04:13:20;;;;;;;8.63;6.70;;;4.90;99.90;;;;;;459869;258;27491;-70
2022/02/04 04:15:22;;;;;;;7.70;6.15;;;4.90;99.90;;;;;;459885;258;27498;-70
2022/02/04 04:17:22;;;;;;;7.62;5.93;;;4.90;99.90;;;;;;459850;258;27514;-70
2022/02/04 04:19:24;;;;;;;8.45;6.15;;;4.90;99.90;;;;;;459876;258;27998;-70
2022/02/04 04:21:25;;;;;;;7.62;5.80;;;4.90;99.90;;;;;;459853;258;27920;-68
2022/02/04 04:23:26;;;;;;;7.10;5.82;;;4.90;99.90;;;;;;459870;258;28012;-68
2022/02/04 04:25:27;;;;;;;8.20;6.25;;;4.90;99.90;;;;;;459884;258;27511;-67
2022/02/04 04:27:29;;;;;;;7.12;5.97;;;4.90;99.90;;;;;;459877;258;27467;-68
2022/02/04 04:29:30;;;;;;;6.82;5.32;;;4.90;99.90;;;;;;459871;258;27573;-68
2022/02/04 04:31:31;;;;;;;7.82;6.10;;;4.90;99.90;;;;;;459861;258;27464;-67
2022/02/04 04:33:32;;;;;;;7.50;5.97;;;4.90;99.90;;;;;;459897;258;27539;-67
2022/02/04 04:35:35;;;;;;;8.10;6.00;;;4.90;99.90;;;;;;459896;258;27533;-67
2022/02/04 04:37:35;;;;;;;8.65;6.28;;;4.90;99.90;;;;;;459865;258;27467;-68
2022/02/04 04:39:48;;;;;;;9.05;5.90;;;4.90;99.90;;;;;;459859;258;27515;-68
2022/02/04 04:41:57;;;;;;;11.07;7.30;;;4.90;99.90;;;;;;459894;258;27544;-67
2022/02/04 05:29:32;;;;;;;13.00;8.20;;;5.00;99.90;;;;;;459887;258;27544;-68
2022/02/04 05:31:33;;;;;;;12.00;8.30;;;4.90;99.90;;;;;;460327;258;27602;-68
2022/02/04 05:33:34;;;;;;;13.07;8.10;;;4.90;99.90;;;;;;459862;258;27458;-68
2022/02/04 05:35:36;;;;;;;12.93;9.48;;;5.00;99.90;;;;;;459876;258;27612;-68
2022/02/04 05:37:41;;;;;;;11.65;8.40;;;4.90;99.90;;;;;;459885;258;28001;-68
2022/02/04 05:39:48;;;;;;;11.43;8.43;;;5.00;99.90;;;;;;459880;258;27991;-68
2022/02/04 05:41:44;;;;;;;12.57;8.20;;;4.90;99.90;;;;;;459887;258;27657;-69
2022/02/04 05:43:43;;;;;;;11.75;8.93;;;5.00;99.90;;;;;;459849;258;27456;-69
2022/02/04 05:45:50;;;;;;;10.90;8.68;;;5.00;99.90;;;;;;459830;258;27478;-70
2022/02/04 05:47:43;;;;;;;12.55;8.45;;;4.90;99.90;;;;;;459926;258;27506;-70
2022/02/04 05:50:00;;;;;;;12.95;9.10;;;4.90;99.90;;;;;;459878;258;27528;-68
2022/02/04 05:54:10;;;;;;;12.50;8.18;;;5.00;99.90;;;;;;459863;258;27586;-68
2022/02/04 05:56:13;;;;;;;12.98;8.40;;;5.00;99.90;;;;;;459904;258;27511;-68
2022/02/04 05:58:18;;;;;;;11.43;8.48;;;4.90;99.90;;;;;;459918;258;27553;-68
2022/02/04 06:22:18;;;;;;;11.77;7.93;;;4.90;99.90;;;;;;460364;258;28070;-68
2022/02/04 06:24:09;;;;;;;11.60;8.10;;;4.90;99.90;;;;;;459919;258;27528;-68
2022/02/04 06:26:10;;;;;;;10.95;7.53;;;4.90;99.90;;;;;;459871;258;28043;-69
2022/02/04 06:28:12;;;;;;;10.77;8.10;;;4.90;99.90;;;;;;459872;258;28025;-68
2022/02/04 06:30:13;;;;;;;12.95;8.52;;;4.90;99.90;;;;;;459886;258;28034;-69
2022/02/04 06:32:16;;;;;;;8.73;7.20;;;4.90;99.90;;;;;;459889;258;27594;-68
2022/02/04 06:34:15;;;;;;;8.23;6.20;;;4.90;99.90;;;;;;459861;258;27451;-68
2022/02/04 06:36:17;;;;;;;9.38;6.75;;;5.00;99.90;;;;;;459888;258;27502;-68
2022/02/04 06:38:18;;;;;;;10.65;8.00;;;4.90;99.90;;;;;;459891;258;27478;-69
2022/02/04 06:40:19;;;;;;;9.38;6.37;;;4.90;99.90;;;;;;459892;258;27543;-68
2022/02/04 06:42:20;;;;;;;9.13;6.40;;;4.90;99.90;;;;;;459877;258;27521;-68
2022/02/04 06:44:22;;;;;;;8.65;6.53;;;5.00;99.90;;;;;;459871;258;27602;-68
2022/02/04 06:46:23;;;;;;;9.00;6.95;;;4.90;99.90;;;;;;459872;258;28203;-68
2022/02/04 06:48:24;;;;;;;9.38;7.45;;;4.90;99.90;;;;;;459893;258;28052;-68
2022/02/04 06:50:25;;;;;;;10.50;7.20;;;4.90;99.90;;;;;;459899;258;27942;-69
2022/02/04 06:52:27;;;;;;;10.93;7.03;;;5.00;99.90;;;;;;459880;258;27503;-68
2022/02/04 06:54:28;;;;;;;8.98;6.70;;;5.00;99.90;;;;;;459888;258;27463;-68
2022/02/04 06:56:33;;;;;;;9.30;7.20;;;5.00;99.90;;;;;;459857;258;27481;-69
2022/02/04 06:58:30;;;;;;;10.35;6.53;;;4.90;99.90;;;;;;459888;258;27567;-68
2022/02/04 07:00:32;;;;;;;9.23;7.15;;;4.90;99.90;;;;;;459909;258;27479;-69
2022/02/04 07:02:33;;;;;;;8.55;6.50;;;4.90;99.90;;;;;;459887;258;27502;-68
2022/02/04 07:04:35;;;;;;;9.05;6.78;;;5.00;99.90;;;;;;459890;258;27566;-68
2022/02/04 07:06:39;;;;;;;9.63;6.68;;;5.00;99.90;;;;;;459886;258;27973;-68
2022/02/04 07:09:00;;;;;;;9.90;6.93;;;5.00;99.90;;;;;;459905;258;28080;-69
2022/02/04 07:12:56;;;;;;;8.07;6.18;;;5.00;99.90;;;;;;459882;258;27535;-69
2022/02/04 07:15:22;;;;;;;10.52;7.70;;;5.00;99.90;;;;;;459867;258;27894;-68
2022/02/04 07:21:14;;;;;;;9.80;7.30;;;5.00;99.90;;;;;;459898;258;27475;-69
2022/02/04 07:23:16;;;;;;;8.80;7.00;;;5.00;99.90;;;;;;460314;258;27626;-68
2022/02/04 07:25:17;;;;;;;8.98;6.60;;;5.00;99.90;;;;;;459859;258;27506;-70
2022/02/04 07:27:18;;;;;;;8.48;6.80;;;5.00;99.90;;;;;;459881;258;27478;-71
2022/02/04 07:29:20;;;;;;;8.93;6.87;;;5.00;99.90;;;;;;459888;258;27629;-68
2022/02/04 07:31:21;;;;;;;9.93;7.15;;;5.00;99.90;;;;;;459858;258;27958;-68
2022/02/04 07:33:26;;;;;;;8.40;6.10;;;5.00;99.90;;;;;;459865;258;27990;-68
2022/02/04 07:38:35;;;;;;;8.25;5.78;;;5.00;99.90;;;;;;459889;258;28133;-68
2022/02/04 07:42:16;;;;;;;7.93;6.15;;;5.00;99.90;;;;;;460338;258;27527;-68
2022/02/04 07:44:17;;;;;;;9.35;6.93;;;5.00;99.90;;;;;;459885;258;27595;-68
2022/02/04 07:46:19;;;;;;;9.45;6.97;;;5.00;99.90;;;;;;459869;258;27475;-68
2022/02/04 07:48:19;;;;;;;9.27;6.78;;;5.00;99.90;;;;;;459879;258;27570;-68
2022/02/04 07:50:21;;;;;;;9.00;6.62;;;5.00;99.90;;;;;;459896;258;27463;-68
2022/02/04 07:52:22;;;;;;;9.30;6.32;;;5.00;99.90;;;;;;459872;258;27498;-68
2022/02/04 07:54:23;;;;;;;8.18;6.10;;;5.00;99.90;;;;;;459901;258;27531;-68
2022/02/04 07:56:25;;;;;;;7.95;6.47;;;5.00;99.90;;;;;;459877;258;27946;-68
2022/02/04 07:58:26;;;;;;;7.55;6.37;;;5.00;99.90;;;;;;459896;258;28009;-68
2022/02/04 08:00:27;;;;;;;13.00;7.53;;;5.00;99.90;;;;;;459876;258;27991;-68
2022/02/04 08:02:28;;;;;;;9.30;6.90;;;5.00;99.90;;;;;;459868;258;27506;-68
2022/02/04 08:04:32;;;;;;;8.65;6.78;;;5.00;99.90;;;;;;459873;258;27478;-68
2022/02/04 08:06:35;;;;;;;8.43;6.70;;;5.00;99.90;;;;;;459872;258;27570;-68
2022/02/04 08:08:42;;;;;;;9.95;7.00;;;5.00;99.90;;;;;;459876;258;27609;-68
2022/02/04 08:10:44;;;;;;;9.23;6.80;;;5.00;99.90;;;;;;459885;258;28026;-68
2022/02/04 08:14:51;;;;;;;9.45;6.85;;;5.00;99.90;;;;;;459867;258;27950;-68
2022/02/04 08:23:36;;;;;;;8.48;6.28;;;5.10;99.90;;;;;;460323;258;27507;-68
2022/02/04 08:29:45;;;;;;;9.25;6.22;;;5.10;99.90;;;;;;459887;258;27972;-68
2022/02/04 08:31:45;;;;;;;10.00;6.18;;;5.10;99.90;;;;;;459932;258;27468;-68
2022/02/04 08:34:02;;;;;;;8.63;5.50;;;5.10;99.90;;;;;;459910;258;27967;-68
2022/02/04 08:38:30;;;;;;;7.10;5.70;;;5.10;99.90;;;;;;460351;258;27491;-68
2022/02/04 08:49:42;;;;;;;6.60;4.70;;;5.20;99.90;;;;;;459856;258;27935;-68
2022/02/04 08:51:38;;;;;;;6.22;4.70;;;5.20;99.90;;;;;;459929;258;27597;-68
2022/02/04 08:53:55;;;;;;;6.85;4.85;;;5.20;99.90;;;;;;459909;258;27574;-68
2022/02/04 08:55:47;;;;;;;6.25;4.90;;;5.10;99.90;;;;;;459914;258;27461;-69
2022/02/04 08:57:49;;;;;;;4.70;4.03;;;5.20;99.90;;;;;;459639;258;27937;-69
2022/02/04 09:00:11;;;;;;;5.53;4.68;;;5.20;99.90;;;;;;459891;258;27459;-68
2022/02/04 09:02:07;;;;;;;6.18;4.97;;;5.30;99.90;;;;;;459897;258;28122;-68
2022/02/04 09:04:15;;;;;;;4.50;4.05;;;5.30;99.90;;;;;;459874;258;27917;-68
2022/02/04 09:06:14;;;;;;;4.53;4.10;;;5.20;99.90;;;;;;459751;258;27998;-68
2022/02/04 09:10:17;;;;;;;4.68;4.20;;;5.20;99.90;;;;;;459873;258;27467;-68
2022/02/04 09:19:01;;;;;;;4.28;3.87;;;5.20;99.90;;;;;;455619;258;27650;-68
2022/02/04 09:22:58;;;;;;;4.12;3.70;;;5.20;99.90;;;;;;459856;258;27527;-68
2022/02/04 09:24:59;;;;;;;4.97;3.85;;;5.20;99.90;;;;;;459843;258;27554;-69
2022/02/04 09:27:00;;;;;;;3.40;3.10;;;5.20;99.90;;;;;;459819;258;27543;-69
2022/02/04 09:29:02;;;;;;;3.87;3.47;;;5.20;99.90;;;;;;459839;258;27579;-68
2022/02/04 09:31:03;;;;;;;4.40;3.50;;;5.20;99.90;;;;;;459836;258;27595;-70
2022/02/04 09:33:05;;;;;;;3.83;3.30;;;5.20;99.90;;;;;;459859;258;27971;-70
2022/02/04 09:35:05;;;;;;;4.50;3.50;;;5.30;99.90;;;;;;459864;258;28050;-70
2022/02/04 09:37:07;;;;;;;3.62;3.25;;;5.30;99.90;;;;;;459805;258;28033;-70
2022/02/04 09:39:08;;;;;;;4.25;3.58;;;5.20;99.90;;;;;;459861;258;27518;-68
2022/02/04 09:41:09;;;;;;;4.75;3.50;;;5.20;99.90;;;;;;459860;258;27586;-68
2022/02/04 09:43:10;;;;;;;3.72;3.40;;;5.20;99.90;;;;;;459886;258;27543;-68
2022/02/04 09:45:12;;;;;;;3.00;2.70;;;5.20;99.90;;;;;;459877;258;27514;-70
2022/02/04 09:47:13;;;;;;;4.50;3.45;;;5.30;99.90;;;;;;459862;258;27543;-70
2022/02/04 09:49:27;;;;;;;3.45;2.90;;;5.30;99.90;;;;;;459876;258;27685;-70
2022/02/04 09:51:29;;;;;;;4.47;3.05;;;5.30;99.90;;;;;;459874;258;28739;-68
2022/02/04 10:09:38;;;;;;;3.50;3.20;;;5.30;99.90;;;;;;459902;258;27467;-68
2022/02/04 10:13:56;;;;;;;3.80;3.50;;;5.30;99.90;;;;;;459882;258;27574;-68
2022/02/04 10:17:41;;;;;;;5.22;4.28;;;5.20;99.90;;;;;;459904;258;28072;-68
2022/02/04 10:21:41;;;;;;;5.03;3.97;;;5.30;99.90;;;;;;459712;258;27657;-69
2022/02/04 10:23:42;;;;;;;4.22;3.72;;;5.30;99.90;;;;;;459854;258;27615;-69
2022/02/04 10:25:44;;;;;;;4.45;4.05;;;5.30;99.90;;;;;;459848;258;27489;-68
2022/02/04 10:27:46;;;;;;;5.00;4.22;;;5.30;99.90;;;;;;459851;258;27511;-71
2022/02/04 10:29:46;;;;;;;4.35;3.95;;;5.40;99.90;;;;;;459835;258;27515;-68
2022/02/04 10:31:47;;;;;;;4.45;4.05;;;5.50;99.90;;;;;;459873;258;27498;-70
2022/02/04 10:33:49;;;;;;;6.43;4.40;;;5.50;99.90;;;;;;459854;258;27587;-68
2022/02/04 10:35:51;;;;;;;4.30;3.90;;;5.40;99.90;;;;;;459861;258;27464;-68
2022/02/04 10:37:51;;;;;;;4.75;4.15;;;5.40;99.90;;;;;;459803;258;28091;-70
2022/02/04 10:41:57;;;;;;;4.78;4.20;;;5.50;99.90;;;;;;459890;258;28011;-68
2022/02/04 10:44:07;;;;;;;4.57;4.15;;;5.50;99.90;;;;;;459894;257;28116;-68
2022/02/04 10:46:05;;;;;;;6.00;4.57;;;5.50;99.90;;;;;;459736;258;27518;-70
2022/02/04 10:48:32;;;;;;;5.72;4.37;;;5.50;99.90;;;;;;459857;258;27513;-68
2022/02/04 10:50:27;;;;;;;5.10;3.90;;;5.70;99.90;;;;;;459846;258;27528;-68
2022/02/04 10:57:23;;;;;;;4.72;4.22;;;5.80;99.90;;;;;;460371;258;27585;-68
2022/02/04 10:59:38;;;;;;;3.42;3.12;;;5.90;99.90;;;;;;459923;258;28023;-68
2022/02/04 11:03:41;;;;;;;3.95;3.60;;;6.00;99.90;;;;;;459886;258;27495;-68
2022/02/04 11:05:50;;;;;;;3.67;2.95;;;5.90;99.90;;;;;;459918;258;27459;-68
2022/02/04 11:08:08;;;;;;;3.35;3.05;;;5.90;99.90;;;;;;459923;258;27982;-68
2022/02/04 11:34:45;;;;;;;2.80;2.60;;;6.00;99.90;;;;;;459707;258;27635;-69
2022/02/04 11:37:02;;;;;;;2.47;2.28;;;6.10;99.90;;;;;;459812;258;28043;-68
2022/02/04 11:48:23;;;;;;;2.55;2.35;;;6.30;99.90;;;;;;459861;258;27579;-68
2022/02/04 11:51:00;;;;;;;2.00;1.90;;;6.30;99.90;;;;;;460385;258;28159;-69
2022/02/04 11:52:13;;;;;;;2.25;2.10;;;6.40;99.90;;;;;;459813;258;27466;-68
2022/02/04 11:54:53;;;;;;;1.80;1.70;;;6.40;99.90;;;;;;459920;258;27501;-68
2022/02/04 11:56:21;;;;;;;2.10;2.00;;;6.50;99.90;;;;;;457985;258;27506;-68
2022/02/04 11:58:23;;;;;;;2.20;1.90;;;6.60;99.90;;;;;;459897;258;27510;-68
2022/02/04 12:00:24;;;;;;;1.70;1.62;;;6.60;99.90;;;;;;459920;258;28898;-70
2022/02/04 12:02:30;;;;;;;1.95;1.75;;;6.60;99.90;;;;;;459903;258;27480;-70
2022/02/04 12:04:26;;;;;;;1.60;1.60;;;6.60;99.90;;;;;;459684;258;27954;-68
2022/02/04 12:06:28;;;;;;;2.20;2.00;;;6.50;99.90;;;;;;459863;258;27944;-71
2022/02/04 12:08:31;;;;;;;1.60;1.50;;;6.60;99.90;;;;;;459884;258;28929;-71
2022/02/04 12:10:30;;;;;;;2.80;1.67;;;6.70;99.90;;;;;;459906;258;27603;-71
2022/02/04 12:12:31;;;;;;;1.70;1.60;;;6.70;99.90;;;;;;459896;258;28485;-70
2022/02/04 12:14:33;;;;;;;1.40;1.40;;;6.70;99.90;;;;;;459892;258;27586;-70
2022/02/04 12:16:34;;;;;;;1.70;1.60;;;6.70;99.90;;;;;;459868;258;28937;-70
2022/02/04 12:18:44;;;;;;;1.30;1.30;;;6.70;99.90;;;;;;459876;258;28854;-70
2022/02/04 12:20:42;;;;;;;1.30;1.20;;;6.70;99.90;;;;;;459889;258;27827;-68
2022/02/04 12:22:44;;;;;;;1.27;1.27;;;6.90;99.90;;;;;;459876;258;27479;-71
2022/02/04 12:24:45;;;;;;;1.35;1.25;;;6.80;99.90;;;;;;459890;258;28448;-71
2022/02/04 12:26:46;;;;;;;1.53;1.43;;;6.70;99.90;;;;;;459851;254;28751;-70
2022/02/04 12:28:48;;;;;;;1.20;1.20;;;6.80;99.90;;;;;;459899;258;28647;-70
2022/02/04 12:30:49;;;;;;;1.33;1.33;;;6.80;99.90;;;;;;459885;258;29399;-70
2022/02/04 12:32:50;;;;;;;1.25;1.15;;;6.80;99.90;;;;;;459890;258;28400;-70
2022/02/04 12:34:51;;;;;;;1.27;1.17;;;6.60;99.90;;;;;;459888;258;27511;-70
2022/02/04 12:36:54;;;;;;;1.40;1.30;;;6.50;99.90;;;;;;459884;258;28868;-68
2022/02/04 12:38:54;;;;;;;1.23;1.15;;;6.30;99.90;;;;;;459894;258;27480;-71
2022/02/04 12:40:55;;;;;;;1.25;1.20;;;6.30;99.90;;;;;;459921;258;27598;-68
2022/02/04 12:42:56;;;;;;;1.20;1.20;;;6.20;99.90;;;;;;459906;258;27472;-68
2022/02/04 12:45:00;;;;;;;1.20;1.20;;;6.20;99.90;;;;;;459884;258;27989;-68
2022/02/04 12:47:00;;;;;;;1.10;1.10;;;6.10;99.90;;;;;;459898;258;28009;-68
2022/02/04 12:49:00;;;;;;;1.30;1.30;;;6.20;99.90;;;;;;459908;258;27538;-68
2022/02/04 12:51:01;;;;;;;1.10;1.10;;;6.10;99.90;;;;;;459891;258;27507;-71
2022/02/04 12:53:03;;;;;;;0.90;0.90;;;6.10;99.90;;;;;;459885;258;27462;-70
2022/02/04 12:55:07;;;;;;;1.33;1.30;;;6.10;99.90;;;;;;459882;258;27668;-68
2022/02/04 12:57:29;;;;;;;1.20;1.20;;;6.10;99.90;;;;;;459916;258;27579;-71
2022/02/04 12:59:10;;;;;;;1.50;1.37;;;6.10;99.90;;;;;;459308;258;27930;-68
2022/02/04 13:03:30;;;;;;;1.20;1.20;;;6.10;99.90;;;;;;459877;258;27562;-69
2022/02/04 13:09:53;;;;;;;1.48;1.37;;;6.10;99.90;;;;;;459892;258;27532;-68
2022/02/04 13:11:53;;;;;;;1.30;1.30;;;6.10;99.90;;;;;;459856;258;27514;-70
2022/02/04 13:13:59;;;;;;;2.25;1.25;;;6.10;99.90;;;;;;459872;258;27548;-70
2022/02/04 13:15:56;;;;;;;1.17;1.17;;;6.10;99.90;;;;;;459851;258;27575;-70
2022/02/04 13:17:57;;;;;;;1.50;1.40;;;6.10;99.90;;;;;;459907;258;27514;-70
2022/02/04 13:19:59;;;;;;;1.40;1.30;;;6.00;99.90;;;;;;459885;258;27471;-70
2022/02/04 13:22:00;;;;;;;1.30;1.30;;;6.00;99.90;;;;;;459877;258;27545;-70
2022/02/04 13:24:01;;;;;;;1.50;1.40;;;6.00;99.90;;;;;;459851;258;27575;-70
2022/02/04 13:26:02;;;;;;;1.55;1.45;;;6.00;99.90;;;;;;459862;258;27964;-70
2022/02/04 13:28:04;;;;;;;1.20;1.20;;;6.00;99.90;;;;;;459889;258;28002;-70
2022/02/04 13:30:05;;;;;;;1.30;1.20;;;5.90;99.90;;;;;;459899;258;27480;-68
2022/02/04 13:32:06;;;;;;;1.27;1.27;;;6.00;99.90;;;;;;459888;258;27503;-68
2022/02/04 13:34:07;;;;;;;1.58;1.48;;;6.00;99.90;;;;;;459872;258;27464;-68
2022/02/04 13:36:23;;;;;;;1.30;1.30;;;6.10;99.90;;;;;;459876;258;27582;-70
2022/02/04 13:38:11;;;;;;;1.42;1.33;;;6.10;99.90;;;;;;459771;258;27603;-69
2022/02/04 13:40:19;;;;;;;1.50;1.42;;;6.20;99.90;;;;;;459867;258;27559;-70
2022/02/04 13:42:22;;;;;;;1.45;1.35;;;6.20;99.90;;;;;;459892;258;27976;-70
2022/02/04 13:44:24;;;;;;;1.75;1.65;;;6.20;99.90;;;;;;459875;258;27923;-68
2022/02/04 13:46:32;;;;;;;1.58;1.50;;;6.20;99.90;;;;;;459909;258;27554;-68
2022/02/04 13:48:52;;;;;;;1.60;1.50;;;6.30;99.90;;;;;;459871;258;27514;-68
2022/02/04 13:54:57;;;;;;;1.90;1.80;;;6.20;99.90;;;;;;459884;258;27510;-68
2022/02/04 13:56:59;;;;;;;2.80;1.42;;;6.10;99.90;;;;;;459875;258;27487;-68
2022/02/04 13:58:56;;;;;;;1.70;1.60;;;6.10;99.90;;;;;;459900;258;27618;-68
2022/02/04 14:01:05;;;;;;;1.70;1.60;;;6.00;99.90;;;;;;459879;258;27466;-70
2022/02/04 14:03:00;;;;;;;1.98;1.75;;;6.00;99.90;;;;;;459860;258;27579;-68
2022/02/04 14:05:03;;;;;;;1.80;1.70;;;6.00;99.90;;;;;;459869;258;27520;-68
2022/02/04 14:07:04;;;;;;;1.50;1.40;;;5.90;99.90;;;;;;459864;258;27940;-68
2022/02/04 14:09:07;;;;;;;1.73;1.62;;;6.00;99.90;;;;;;459868;258;27468;-68
2022/02/04 14:11:08;;;;;;;1.70;1.60;;;6.10;99.90;;;;;;459893;258;27495;-68
2022/02/04 14:13:08;;;;;;;1.90;1.80;;;6.00;99.90;;;;;;459860;258;27916;-68
2022/02/04 14:15:09;;;;;;;2.00;1.90;;;6.00;99.90;;;;;;459850;258;28499;-70
2022/02/04 14:17:10;;;;;;;1.58;1.48;;;6.00;99.90;;;;;;459864;258;27499;-69
2022/02/04 14:19:12;;;;;;;1.70;1.60;;;6.00;99.90;;;;;;459886;258;27463;-68
2022/02/04 14:21:14;;;;;;;1.50;1.40;;;6.00;99.90;;;;;;459891;258;27515;-68
2022/02/04 14:23:14;;;;;;;1.73;1.62;;;6.00;99.90;;;;;;459885;258;27562;-68
2022/02/04 14:25:15;;;;;;;1.50;1.40;;;6.00;99.90;;;;;;459889;258;27558;-70
2022/02/04 14:27:17;;;;;;;1.60;1.50;;;6.00;99.90;;;;;;459892;258;27978;-70
2022/02/04 14:29:34;;;;;;;1.90;1.80;;;6.00;99.90;;;;;;459879;258;27996;-70
2022/02/04 14:49:24;;;;;;;1.95;1.75;;;6.00;99.90;;;;;;459911;258;27507;-68
2022/02/04 14:49:26;;;;;;;1.83;1.73;;;6.00;99.90;;;;;;459915;258;27475;-68
2022/02/04 14:53:26;;;;;;;1.50;1.40;;;5.90;99.90;;;;;;454030;258;27579;-68
2022/02/04 15:02:11;;;;;;;1.73;1.62;;;5.70;99.90;;;;;;459896;258;28077;-69
2022/02/04 15:04:22;;;;;;;1.83;1.73;;;5.70;99.90;;;;;;459903;258;27548;-70
2022/02/04 15:06:22;;;;;;;1.80;1.70;;;5.70;99.90;;;;;;459944;258;27525;-68
2022/02/04 15:08:19;;;;;;;1.77;1.67;;;5.70;99.90;;;;;;459912;258;27534;-68
2022/02/04 15:10:28;;;;;;;1.60;1.50;;;5.70;99.90;;;;;;459894;258;28133;-68
2022/02/04 15:12:19;;;;;;;1.70;1.60;;;5.60;99.90;;;;;;459946;258;27922;-68
2022/02/04 15:14:20;;;;;;;1.83;1.73;;;5.60;99.90;;;;;;459900;258;27553;-68
2022/02/04 15:16:21;;;;;;;1.70;1.60;;;5.60;99.90;;;;;;459870;258;27474;-70
2022/02/04 15:18:22;;;;;;;1.75;1.65;;;5.60;99.90;;;;;;459882;258;27498;-68
2022/02/04 15:20:24;;;;;;;1.80;1.70;;;5.60;99.90;;;;;;459923;258;27549;-68
2022/02/04 15:22:27;;;;;;;1.85;1.75;;;5.60;99.90;;;;;;459898;258;27571;-68
2022/02/04 15:24:26;;;;;;;1.70;1.60;;;5.60;99.90;;;;;;459873;258;27609;-68
2022/02/04 15:26:28;;;;;;;1.80;1.70;;;5.60;99.90;;;;;;459894;258;28009;-68
2022/02/04 15:28:45;;;;;;;1.70;1.60;;;5.60;99.90;;;;;;459877;258;28017;-70
2022/02/04 15:30:43;;;;;;;1.83;1.73;;;5.50;99.90;;;;;;459748;258;27466;-68
2022/02/04 15:32:40;;;;;;;1.70;1.70;;;5.50;99.90;;;;;;459866;258;27486;-68
2022/02/04 15:34:42;;;;;;;2.15;2.05;;;5.60;99.90;;;;;;459905;258;27479;-70
2022/02/04 15:36:45;;;;;;;1.87;1.77;;;5.50;99.90;;;;;;459920;258;28047;-70
2022/02/04 15:38:44;;;;;;;1.77;1.67;;;5.60;99.90;;;;;;459917;258;28054;-70
2022/02/04 15:40:46;;;;;;;1.45;1.35;;;5.50;99.90;;;;;;459902;258;27573;-68
2022/02/04 15:42:55;;;;;;;1.92;1.83;;;5.50;99.90;;;;;;459868;258;27583;-68
2022/02/04 15:45:13;;;;;;;1.67;1.58;;;5.50;99.90;;;;;;459915;258;27574;-68
2022/02/04 15:47:15;;;;;;;2.08;1.90;;;5.50;99.90;;;;;;459791;258;27831;-68